createdAt,value
2023-08-15T00:01:45.905Z,25.23
2023-08-15T00:04:18.600Z,25.21
2023-08-15T00:06:51.562Z,25.19
2023-08-15T00:09:24.374Z,25.17
2023-08-15T00:11:57.229Z,25.13
2023-08-15T00:14:30.033Z,25.11
2023-08-15T00:17:04.533Z,25.06
2023-08-15T00:19:37.516Z,25.01
2023-08-15T00:22:10.423Z,24.97
2023-08-15T00:24:43.399Z,24.92
2023-08-15T00:27:16.197Z,24.86
2023-08-15T00:29:49.132Z,24.80
2023-08-15T00:32:23.396Z,24.75
2023-08-15T00:34:56.070Z,24.71
2023-08-15T00:37:28.900Z,24.67
2023-08-15T00:40:02.162Z,24.62
2023-08-15T00:42:34.813Z,24.57
2023-08-15T00:45:07.997Z,24.54
2023-08-15T00:47:42.151Z,24.48
2023-08-15T00:50:15.057Z,24.43
2023-08-15T00:52:47.962Z,24.40
2023-08-15T00:55:21.054Z,24.36
2023-08-15T00:57:53.954Z,24.31
2023-08-15T01:00:27.442Z,24.28
2023-08-15T01:03:01.720Z,24.23
2023-08-15T01:05:34.664Z,24.20
2023-08-15T01:08:08.008Z,24.18
2023-08-15T01:10:41.044Z,24.15
2023-08-15T01:13:17.175Z,24.13
2023-08-15T01:15:51.810Z,24.14
2023-08-15T01:18:29.414Z,24.12
2023-08-15T01:21:03.330Z,24.14
2023-08-15T01:23:43.678Z,24.14
2023-08-15T01:26:16.356Z,24.15
2023-08-15T01:28:49.078Z,24.17
2023-08-15T01:31:27.906Z,24.19
2023-08-15T01:34:04.472Z,24.19
2023-08-15T01:36:39.834Z,24.21
2023-08-15T01:39:15.750Z,24.22
2023-08-15T01:41:49.298Z,24.22
2023-08-15T01:44:22.689Z,24.23
2023-08-15T01:46:55.473Z,24.23
2023-08-15T01:49:28.233Z,24.24
2023-08-15T01:52:01.136Z,24.25
2023-08-15T01:54:35.205Z,24.28
2023-08-15T01:57:08.022Z,24.30
2023-08-15T01:59:40.644Z,24.32
2023-08-15T02:02:13.399Z,24.33
2023-08-15T02:04:46.156Z,24.38
2023-08-15T02:07:19.221Z,24.38
2023-08-15T02:09:53.716Z,24.41
2023-08-15T02:12:26.426Z,24.42
2023-08-15T02:14:59.074Z,24.42
2023-08-15T02:17:31.794Z,24.44
2023-08-15T02:20:04.712Z,24.46
2023-08-15T02:22:37.484Z,24.48
2023-08-15T02:25:12.089Z,24.50
2023-08-15T02:27:44.840Z,24.51
2023-08-15T02:30:18.072Z,24.54
2023-08-15T02:32:50.965Z,24.55
2023-08-15T02:35:23.776Z,24.58
2023-08-15T02:37:56.571Z,24.59
2023-08-15T02:40:31.099Z,24.62
2023-08-15T02:43:03.940Z,24.63
2023-08-15T02:45:36.705Z,24.64
2023-08-15T02:48:09.520Z,24.64
2023-08-15T02:50:42.267Z,24.66
2023-08-15T02:53:15.266Z,24.67
2023-08-15T02:55:52.964Z,24.67
2023-08-15T02:58:25.793Z,24.68
2023-08-15T03:00:58.580Z,24.68
2023-08-15T03:03:32.117Z,24.69
2023-08-15T03:06:05.453Z,24.71
2023-08-15T03:08:38.156Z,24.70
2023-08-15T03:11:12.293Z,24.70
2023-08-15T03:13:45.098Z,24.71
2023-08-15T03:16:18.121Z,24.70
2023-08-15T03:18:51.029Z,24.70
2023-08-15T03:21:23.984Z,24.70
2023-08-15T03:23:56.761Z,24.70
2023-08-15T03:26:31.178Z,24.69
2023-08-15T03:29:04.016Z,24.69
2023-08-15T03:31:36.892Z,24.69
2023-08-15T03:34:09.614Z,24.68
2023-08-15T03:36:42.488Z,24.67
2023-08-15T03:39:15.371Z,24.66
2023-08-15T03:41:49.645Z,24.63
2023-08-15T03:44:22.382Z,24.62
2023-08-15T03:46:55.277Z,24.60
2023-08-15T03:49:28.092Z,24.59
2023-08-15T03:52:00.998Z,24.57
2023-08-15T03:54:33.773Z,24.55
2023-08-15T03:57:08.176Z,24.53
2023-08-15T03:59:41.004Z,24.52
2023-08-15T04:02:13.917Z,24.49
2023-08-15T04:04:47.040Z,24.48
2023-08-15T04:07:20.189Z,24.46
2023-08-15T04:09:53.170Z,24.45
2023-08-15T04:12:27.470Z,24.43
2023-08-15T04:15:00.587Z,24.41
2023-08-15T04:17:33.748Z,24.40
2023-08-15T04:20:07.201Z,24.37
2023-08-15T04:22:40.228Z,24.36
2023-08-15T04:25:13.254Z,24.33
2023-08-15T04:27:47.556Z,24.31
2023-08-15T04:30:21.752Z,24.28
2023-08-15T04:32:54.535Z,24.27
2023-08-15T04:35:27.433Z,24.25
2023-08-15T04:38:00.240Z,24.24
2023-08-15T04:40:33.880Z,24.24
2023-08-15T04:43:08.558Z,24.23
2023-08-15T04:45:44.826Z,24.23
2023-08-15T04:48:18.472Z,24.22
2023-08-15T04:50:51.185Z,24.21
2023-08-15T04:53:23.900Z,24.20
2023-08-15T04:55:56.805Z,24.19
2023-08-15T04:58:30.963Z,24.18
2023-08-15T05:01:04.231Z,24.16
2023-08-15T05:03:37.301Z,24.16
2023-08-15T05:06:10.363Z,24.16
2023-08-15T05:08:43.271Z,24.15
2023-08-15T05:11:15.930Z,24.15
2023-08-15T05:13:50.100Z,24.16
2023-08-15T05:16:22.893Z,24.17
2023-08-15T05:18:55.632Z,24.18
2023-08-15T05:21:29.381Z,24.19
2023-08-15T05:24:02.276Z,24.22
2023-08-15T05:26:35.048Z,24.24
2023-08-15T05:29:09.261Z,24.27
2023-08-15T05:31:42.246Z,24.30
2023-08-15T05:34:14.983Z,24.33
2023-08-15T05:36:47.635Z,24.38
2023-08-15T05:39:20.450Z,24.41
2023-08-15T05:41:53.191Z,24.44
2023-08-15T05:44:27.532Z,24.48
2023-08-15T05:47:00.477Z,24.54
2023-08-15T05:49:33.138Z,24.59
2023-08-15T05:52:06.571Z,24.64
2023-08-15T05:54:39.410Z,24.69
2023-08-15T05:57:12.213Z,24.73
2023-08-15T05:59:47.131Z,24.78
2023-08-15T06:02:20.228Z,24.85
2023-08-15T06:04:53.116Z,24.91
2023-08-15T06:07:25.951Z,24.97
2023-08-15T06:09:58.787Z,25.03
2023-08-15T06:12:31.518Z,25.07
2023-08-15T06:15:06.433Z,25.12
2023-08-15T06:17:40.348Z,25.17
2023-08-15T06:20:13.411Z,25.23
2023-08-15T06:22:46.298Z,25.27
2023-08-15T06:25:19.199Z,25.32
2023-08-15T06:27:51.950Z,25.35
2023-08-15T06:30:26.630Z,25.39
2023-08-15T06:32:59.503Z,25.43
2023-08-15T06:35:32.428Z,25.47
2023-08-15T06:38:05.483Z,25.53
2023-08-15T06:40:38.547Z,25.58
2023-08-15T06:43:11.422Z,25.63
2023-08-15T06:45:45.766Z,25.68
2023-08-15T06:48:18.598Z,25.72
2023-08-15T06:50:51.487Z,25.78
2023-08-15T06:53:24.192Z,25.83
2023-08-15T06:55:56.907Z,25.87
2023-08-15T06:58:29.759Z,25.89
2023-08-15T07:01:04.258Z,25.93
2023-08-15T07:03:37.344Z,25.95
2023-08-15T07:06:10.350Z,25.96
2023-08-15T07:08:43.400Z,25.98
2023-08-15T07:11:16.203Z,25.99
2023-08-15T07:13:48.926Z,26.02
2023-08-15T07:16:24.946Z,26.04
2023-08-15T07:18:57.726Z,26.06
2023-08-15T07:21:30.597Z,26.09
2023-08-15T07:24:03.513Z,26.13
2023-08-15T07:26:37.494Z,26.18
2023-08-15T07:29:12.245Z,26.27
2023-08-15T07:31:46.955Z,26.39
2023-08-15T07:34:20.641Z,26.50
2023-08-15T07:36:53.380Z,26.65
2023-08-15T07:39:26.250Z,26.78
2023-08-15T07:41:59.019Z,26.91
2023-08-15T07:44:32.145Z,27.04
2023-08-15T07:47:06.734Z,27.15
2023-08-15T07:49:39.994Z,27.27
2023-08-15T07:52:13.139Z,27.37
2023-08-15T07:54:46.767Z,27.50
2023-08-15T07:57:19.506Z,27.60
2023-08-15T07:59:52.330Z,27.70
2023-08-15T08:02:27.036Z,27.79
2023-08-15T08:05:00.154Z,27.89
2023-08-15T08:07:33.679Z,27.98
2023-08-15T08:10:07.010Z,28.08
2023-08-15T08:12:39.931Z,28.15
2023-08-15T08:15:12.649Z,28.22
2023-08-15T08:17:46.792Z,28.31
2023-08-15T08:20:21.757Z,28.39
2023-08-15T08:22:54.570Z,28.51
2023-08-15T08:25:27.336Z,28.57
2023-08-15T08:28:00.123Z,28.66
2023-08-15T08:30:35.566Z,28.75
2023-08-15T08:33:10.503Z,28.84
2023-08-15T08:35:43.237Z,28.95
2023-08-15T08:38:16.787Z,29.05
2023-08-15T08:40:49.737Z,29.16
2023-08-15T08:43:22.967Z,29.24
2023-08-15T08:45:57.396Z,29.33
2023-08-15T08:48:32.349Z,29.42
2023-08-15T08:51:06.634Z,29.45
2023-08-15T08:53:39.417Z,29.48
2023-08-15T08:56:12.355Z,29.52
2023-08-15T08:58:46.766Z,29.55
2023-08-15T09:01:20.341Z,29.62
2023-08-15T09:03:54.636Z,29.73
2023-08-15T09:06:27.533Z,29.84
2023-08-15T09:09:01.135Z,29.96
2023-08-15T09:11:37.025Z,30.08
2023-08-15T09:14:10.118Z,30.22
2023-08-15T09:16:47.548Z,30.35
2023-08-15T09:19:21.682Z,30.47
2023-08-15T09:21:54.445Z,30.56
2023-08-15T09:24:28.219Z,30.62
2023-08-15T09:27:06.348Z,30.69
2023-08-15T09:29:39.043Z,30.75
2023-08-15T09:32:11.929Z,30.82
2023-08-15T09:34:46.049Z,30.90
2023-08-15T09:37:22.518Z,30.99
2023-08-15T09:39:55.545Z,31.10
2023-08-15T09:42:29.105Z,31.21
2023-08-15T09:45:01.974Z,31.32
2023-08-15T09:47:35.062Z,31.47
2023-08-15T09:50:10.997Z,31.64
2023-08-15T09:52:44.806Z,31.84
2023-08-15T09:55:18.277Z,32.04
2023-08-15T09:57:52.447Z,32.25
2023-08-15T10:00:25.236Z,32.44
2023-08-15T10:03:02.837Z,32.60
2023-08-15T10:05:37.781Z,32.77
2023-08-15T10:08:11.062Z,32.93
2023-08-15T10:10:44.624Z,33.07
2023-08-15T10:13:17.586Z,33.20
2023-08-15T10:15:50.846Z,33.31
2023-08-15T10:18:23.697Z,33.44
2023-08-15T10:20:59.145Z,33.54
2023-08-15T10:23:32.162Z,33.63
2023-08-15T10:26:05.018Z,33.70
2023-08-15T10:28:38.138Z,33.78
2023-08-15T10:31:10.939Z,33.84
2023-08-15T10:33:44.578Z,33.89
2023-08-15T10:36:18.721Z,33.96
2023-08-15T10:38:54.693Z,34.03
2023-08-15T10:41:29.680Z,34.08
2023-08-15T10:44:04.286Z,34.16
2023-08-15T10:46:37.923Z,34.20
2023-08-15T10:49:12.360Z,34.24
2023-08-15T10:51:46.470Z,34.24
2023-08-15T10:54:19.236Z,34.25
2023-08-15T10:56:52.305Z,34.23
2023-08-15T10:59:25.038Z,34.21
2023-08-15T11:01:57.771Z,34.19
2023-08-15T11:04:32.273Z,34.15
2023-08-15T11:07:06.502Z,34.09
2023-08-15T11:09:39.233Z,34.04
2023-08-15T11:12:12.062Z,33.98
2023-08-15T11:14:44.846Z,33.90
2023-08-15T11:17:17.511Z,33.85
2023-08-15T11:19:50.208Z,33.82
2023-08-15T11:22:24.345Z,33.83
2023-08-15T11:24:57.068Z,33.85
2023-08-15T11:27:30.078Z,33.91
2023-08-15T11:30:02.780Z,33.99
2023-08-15T11:32:35.624Z,34.07
2023-08-15T11:35:08.630Z,34.17
2023-08-15T11:37:43.473Z,34.29
2023-08-15T11:40:16.198Z,34.42
2023-08-15T11:42:49.804Z,34.58
2023-08-15T11:45:24.102Z,34.72
2023-08-15T11:47:58.013Z,34.87
2023-08-15T11:50:43.582Z,35.02
2023-08-15T11:53:19.760Z,35.16
2023-08-15T11:55:53.120Z,35.31
2023-08-15T11:58:26.793Z,35.45
2023-08-15T12:01:02.456Z,35.59
2023-08-15T12:03:35.819Z,35.71
2023-08-15T12:06:09.386Z,35.79
2023-08-15T12:08:46.102Z,35.83
2023-08-15T12:11:20.053Z,35.84
2023-08-15T12:13:52.733Z,35.81
2023-08-15T12:16:25.656Z,35.77
2023-08-15T12:18:58.684Z,35.69
2023-08-15T12:21:31.408Z,35.59
2023-08-15T12:24:05.985Z,35.49
2023-08-15T12:26:38.676Z,35.38
2023-08-15T12:29:12.101Z,35.26
2023-08-15T12:31:46.784Z,35.11
2023-08-15T12:34:19.597Z,34.98
2023-08-15T12:36:52.429Z,34.83
2023-08-15T12:39:26.880Z,34.66
2023-08-15T12:41:59.589Z,34.48
2023-08-15T12:44:32.799Z,34.33
2023-08-15T12:47:05.682Z,34.17
2023-08-15T12:49:38.668Z,34.02
2023-08-15T12:52:11.517Z,33.88
2023-08-15T12:54:45.865Z,33.78
2023-08-15T12:57:18.578Z,33.69
2023-08-15T12:59:51.396Z,33.56
2023-08-15T13:02:24.382Z,33.49
2023-08-15T13:04:57.414Z,33.44
2023-08-15T13:07:30.184Z,33.39
2023-08-15T13:10:04.463Z,33.37
2023-08-15T13:12:37.229Z,33.34
2023-08-15T13:15:12.371Z,33.33
2023-08-15T13:17:46.712Z,33.31
2023-08-15T13:20:19.519Z,33.29
2023-08-15T13:22:52.289Z,33.25
2023-08-15T13:25:26.286Z,33.24
2023-08-15T13:27:58.996Z,33.24
2023-08-15T13:30:31.776Z,33.23
2023-08-15T13:33:04.762Z,33.23
2023-08-15T13:35:37.707Z,33.23
2023-08-15T13:38:10.645Z,33.24
2023-08-15T13:40:45.164Z,33.22
2023-08-15T13:43:18.392Z,33.23
2023-08-15T13:45:51.518Z,33.21
2023-08-15T13:48:24.364Z,33.19
2023-08-15T13:50:57.189Z,33.18
2023-08-15T13:53:30.312Z,33.20
2023-08-15T13:56:04.616Z,33.21
2023-08-15T13:58:37.348Z,33.24
2023-08-15T14:01:10.879Z,33.31
2023-08-15T14:03:43.716Z,33.37
2023-08-15T14:06:16.468Z,33.41
2023-08-15T14:08:49.266Z,33.46
2023-08-15T14:11:23.634Z,33.52
2023-08-15T14:13:56.399Z,33.56
2023-08-15T14:16:29.181Z,33.62
2023-08-15T14:19:02.286Z,33.65
2023-08-15T14:21:35.794Z,33.69
2023-08-15T14:24:11.052Z,33.72
2023-08-15T14:26:45.233Z,33.75
2023-08-15T14:29:17.991Z,33.76
2023-08-15T14:31:51.068Z,33.75
2023-08-15T14:34:23.776Z,33.76
2023-08-15T14:36:56.852Z,33.75
2023-08-15T14:39:29.667Z,33.74
2023-08-15T14:42:04.117Z,33.72
2023-08-15T14:44:37.024Z,33.68
2023-08-15T14:47:09.713Z,33.64
2023-08-15T14:49:42.541Z,33.61
2023-08-15T14:52:15.374Z,33.58
2023-08-15T14:54:48.221Z,33.56
2023-08-15T14:57:22.593Z,33.53
2023-08-15T14:59:55.315Z,33.54
2023-08-15T15:02:28.352Z,33.53
2023-08-15T15:05:01.379Z,33.53
2023-08-15T15:07:34.490Z,33.52
2023-08-15T15:10:07.874Z,33.52
2023-08-15T15:12:42.100Z,33.51
2023-08-15T15:15:15.228Z,33.48
2023-08-15T15:17:48.006Z,33.46
2023-08-15T15:20:20.804Z,33.42
2023-08-15T15:22:53.736Z,33.38
2023-08-15T15:25:26.425Z,33.32
2023-08-15T15:28:00.934Z,33.27
2023-08-15T15:30:33.610Z,33.22
2023-08-15T15:33:06.770Z,33.16
2023-08-15T15:35:39.890Z,33.09
2023-08-15T15:38:12.588Z,33.04
2023-08-15T15:40:45.413Z,32.97
2023-08-15T15:43:21.469Z,32.91
2023-08-15T15:45:54.229Z,32.86
2023-08-15T15:48:27.113Z,32.80
2023-08-15T15:50:59.833Z,32.75
2023-08-15T15:53:34.355Z,32.69
2023-08-15T15:56:07.050Z,32.65
2023-08-15T15:58:41.167Z,32.58
2023-08-15T16:01:14.248Z,32.54
2023-08-15T16:03:47.284Z,32.48
2023-08-15T16:06:20.114Z,32.43
2023-08-15T16:08:52.935Z,32.38
2023-08-15T16:11:25.635Z,32.34
2023-08-15T16:14:00.183Z,32.29
2023-08-15T16:16:32.926Z,32.25
2023-08-15T16:19:05.958Z,32.19
2023-08-15T16:21:39.629Z,32.14
2023-08-15T16:24:12.656Z,32.11
2023-08-15T16:26:46.143Z,32.07
2023-08-15T16:29:20.593Z,32.03
2023-08-15T16:31:53.397Z,32.01
2023-08-15T16:34:26.139Z,31.98
2023-08-15T16:36:58.865Z,31.95
2023-08-15T16:39:31.573Z,31.93
2023-08-15T16:42:04.209Z,31.91
2023-08-15T16:44:38.391Z,31.88
2023-08-15T16:47:11.183Z,31.86
2023-08-15T16:49:46.688Z,31.81
2023-08-15T16:52:20.107Z,31.78
2023-08-15T16:54:53.329Z,31.73
2023-08-15T16:57:26.211Z,31.71
2023-08-15T17:00:00.632Z,31.68
2023-08-15T17:02:33.833Z,31.66
2023-08-15T17:05:07.568Z,31.64
2023-08-15T17:07:40.333Z,31.63
2023-08-15T17:10:13.132Z,31.61
2023-08-15T17:12:47.545Z,31.61
2023-08-15T17:15:21.711Z,31.60
2023-08-15T17:17:54.561Z,31.58
2023-08-15T17:20:27.517Z,31.57
2023-08-15T17:23:00.294Z,31.56
2023-08-15T17:25:33.153Z,31.53
2023-08-15T17:28:06.525Z,31.52
2023-08-15T17:30:40.800Z,31.49
2023-08-15T17:33:14.034Z,31.46
2023-08-15T17:35:47.008Z,31.44
2023-08-15T17:38:19.636Z,31.42
2023-08-15T17:40:52.443Z,31.39
2023-08-15T17:43:25.552Z,31.35
2023-08-15T17:45:59.749Z,31.31
2023-08-15T17:48:32.465Z,31.28
2023-08-15T17:51:05.439Z,31.25
2023-08-15T17:53:38.348Z,31.22
2023-08-15T17:56:11.108Z,31.18
2023-08-15T17:58:50.461Z,31.14
2023-08-15T18:01:25.171Z,31.08
2023-08-15T18:03:59.910Z,31.04
2023-08-15T18:06:32.841Z,30.97
2023-08-15T18:09:07.031Z,30.92
2023-08-15T18:11:39.857Z,30.84
2023-08-15T18:14:14.364Z,30.76
2023-08-15T18:16:50.329Z,30.65
2023-08-15T18:19:23.360Z,30.54
2023-08-15T18:21:56.806Z,30.42
2023-08-15T18:24:29.597Z,30.30
2023-08-15T18:27:03.423Z,30.18
2023-08-15T18:29:36.229Z,30.08
2023-08-15T18:32:10.615Z,29.96
2023-08-15T18:34:43.624Z,29.85
2023-08-15T18:37:16.427Z,29.76
2023-08-15T18:39:49.433Z,29.66
2023-08-15T18:42:22.480Z,29.55
2023-08-15T18:44:55.565Z,29.46
2023-08-15T18:47:29.776Z,29.36
2023-08-15T18:50:03.250Z,29.25
2023-08-15T18:52:36.134Z,29.15
2023-08-15T18:55:09.391Z,29.05
2023-08-15T18:57:42.317Z,28.92
2023-08-15T19:00:17.256Z,28.80
2023-08-15T19:02:53.155Z,28.67
2023-08-15T19:05:26.025Z,28.56
2023-08-15T19:07:58.850Z,28.45
2023-08-15T19:10:32.007Z,28.33
2023-08-15T19:13:05.146Z,28.22
2023-08-15T19:15:39.352Z,28.11
2023-08-15T19:18:14.730Z,28.00
2023-08-15T19:20:47.979Z,27.89
2023-08-15T19:23:21.133Z,27.79
2023-08-15T19:25:54.009Z,27.69
2023-08-15T19:28:27.817Z,27.59
2023-08-15T19:31:00.918Z,27.51
2023-08-15T19:33:35.186Z,27.40
2023-08-15T19:36:08.559Z,27.30
2023-08-15T19:38:41.570Z,27.22
2023-08-15T19:41:17.684Z,27.12
2023-08-15T19:43:57.039Z,27.03
2023-08-15T19:46:30.166Z,26.94
2023-08-15T19:49:04.559Z,26.88
2023-08-15T19:51:37.697Z,26.79
2023-08-15T19:54:10.470Z,26.70
2023-08-15T19:56:43.271Z,26.63
2023-08-15T19:59:16.104Z,26.54
2023-08-15T20:01:48.968Z,26.49
2023-08-15T20:04:23.120Z,26.41
2023-08-15T20:06:55.958Z,26.34
2023-08-15T20:09:28.800Z,26.27
2023-08-15T20:12:01.500Z,26.20
2023-08-15T20:14:34.456Z,26.13
2023-08-15T20:17:07.317Z,26.07
2023-08-15T20:19:41.798Z,26.00
2023-08-15T20:22:16.063Z,25.93
2023-08-15T20:24:50.338Z,25.86
2023-08-15T20:27:23.072Z,25.80
2023-08-15T20:29:58.053Z,25.75
2023-08-15T20:32:31.224Z,25.68
2023-08-15T20:35:06.009Z,25.63
2023-08-15T20:37:38.780Z,25.56
2023-08-15T20:40:12.402Z,25.52
2023-08-15T20:42:45.231Z,25.46
2023-08-15T20:45:18.134Z,25.42
2023-08-15T20:47:50.991Z,25.36
2023-08-15T20:50:25.227Z,25.31
2023-08-15T20:52:57.975Z,25.26
2023-08-15T20:55:31.213Z,25.22
2023-08-15T20:58:04.037Z,25.15
2023-08-15T21:00:37.066Z,25.09
2023-08-15T21:03:09.909Z,25.06
2023-08-15T21:05:45.783Z,25.02
2023-08-15T21:08:18.525Z,24.96
2023-08-15T21:10:51.626Z,24.91
2023-08-15T21:13:24.300Z,24.87
2023-08-15T21:15:57.110Z,24.82
2023-08-15T21:18:29.914Z,24.77
2023-08-15T21:21:04.182Z,24.73
2023-08-15T21:23:36.965Z,24.70
2023-08-15T21:26:10.162Z,24.66
2023-08-15T21:28:43.601Z,24.63
2023-08-15T21:31:16.576Z,24.58
2023-08-15T21:33:49.321Z,24.55
2023-08-15T21:36:23.701Z,24.52
2023-08-15T21:38:56.807Z,24.48
2023-08-15T21:41:30.062Z,24.47
2023-08-15T21:44:02.828Z,24.42
2023-08-15T21:46:35.658Z,24.40
2023-08-15T21:49:08.480Z,24.36
2023-08-15T21:51:42.772Z,24.33
2023-08-15T21:54:15.540Z,24.31
2023-08-15T21:56:48.382Z,24.28
2023-08-15T21:59:23.254Z,24.25
2023-08-15T22:01:56.126Z,24.22
2023-08-15T22:04:28.949Z,24.19
2023-08-15T22:07:03.586Z,24.16
2023-08-15T22:09:36.293Z,24.12
2023-08-15T22:12:09.772Z,24.10
2023-08-15T22:14:44.454Z,24.07
2023-08-15T22:17:19.310Z,24.04
2023-08-15T22:19:53.837Z,23.98
2023-08-15T22:22:28.635Z,23.96
2023-08-15T22:25:05.984Z,23.92
2023-08-15T22:27:39.725Z,23.90
2023-08-15T22:30:12.914Z,23.86
2023-08-15T22:32:45.693Z,23.83
2023-08-15T22:35:18.779Z,23.80
2023-08-15T22:37:52.895Z,23.77
2023-08-15T22:40:25.718Z,23.73
2023-08-15T22:42:58.608Z,23.70
2023-08-15T22:45:31.390Z,23.66
2023-08-15T22:48:04.226Z,23.64
2023-08-15T22:50:37.113Z,23.61
2023-08-15T22:53:11.862Z,23.58
2023-08-15T22:55:44.642Z,23.57
2023-08-15T22:58:18.870Z,23.54
2023-08-15T23:00:55.585Z,23.50
2023-08-15T23:03:28.518Z,23.48
2023-08-15T23:06:02.068Z,23.46
2023-08-15T23:08:36.218Z,23.44
2023-08-15T23:11:09.196Z,23.42
2023-08-15T23:13:41.984Z,23.39
2023-08-15T23:16:15.131Z,23.37
2023-08-15T23:18:47.926Z,23.35
2023-08-15T23:21:20.771Z,23.32
2023-08-15T23:23:54.967Z,23.29
2023-08-15T23:26:27.710Z,23.26
2023-08-15T23:29:00.657Z,23.24
2023-08-15T23:31:34.164Z,23.22
2023-08-15T23:34:07.787Z,23.18
2023-08-15T23:36:40.685Z,23.17
2023-08-15T23:39:16.872Z,23.14
2023-08-15T23:41:50.379Z,23.11
2023-08-15T23:44:23.773Z,23.08
2023-08-15T23:46:56.598Z,23.06
2023-08-15T23:49:29.630Z,23.02
2023-08-15T23:52:02.470Z,22.99
2023-08-15T23:54:36.705Z,22.97
2023-08-15T23:57:09.476Z,22.92
2023-08-15T23:59:42.295Z,22.90
